sensor_id;sensor_type;location;lat;lon;timestamp;P1;durP1;ratioP1;P2;durP2;ratioP2
5454;SDS011;2750;49.050;9.250;2022-09-03T00:02:30;3.33;;;1.70;;
5454;SDS011;2750;49.050;9.250;2022-09-03T00:07:41;2.33;;;1.73;;
5454;SDS011;2750;49.050;9.250;2022-09-03T00:12:47;3.53;;;1.90;;
5454;SDS011;2750;49.050;9.250;2022-09-03T00:17:53;2.67;;;1.70;;
5454;SDS011;2750;49.050;9.250;2022-09-03T00:22:59;1.80;;;1.60;;
5454;SDS011;2750;49.050;9.250;2022-09-03T00:28:05;2.20;;;1.33;;
5454;SDS011;2750;49.050;9.250;2022-09-03T00:33:14;1.70;;;1.57;;
5454;SDS011;2750;49.050;9.250;2022-09-03T00:38:22;5.17;;;1.80;;
5454;SDS011;2750;49.050;9.250;2022-09-03T00:43:26;3.47;;;1.90;;
5454;SDS011;2750;49.050;9.250;2022-09-03T00:48:43;2.03;;;1.83;;
5454;SDS011;2750;49.050;9.250;2022-09-03T00:53:58;3.23;;;1.60;;
5454;SDS011;2750;49.050;9.250;2022-09-03T00:59:08;1.83;;;1.60;;
5454;SDS011;2750;49.050;9.250;2022-09-03T01:04:24;2.73;;;1.90;;
5454;SDS011;2750;49.050;9.250;2022-09-03T01:09:40;2.43;;;1.90;;
5454;SDS011;2750;49.050;9.250;2022-09-03T01:14:52;1.73;;;1.63;;
5454;SDS011;2750;49.050;9.250;2022-09-03T01:20:07;2.10;;;1.77;;
5454;SDS011;2750;49.050;9.250;2022-09-03T01:25:46;1.83;;;1.47;;
5454;SDS011;2750;49.050;9.250;2022-09-03T01:30:54;2.07;;;1.47;;
5454;SDS011;2750;49.050;9.250;2022-09-03T01:35:59;2.40;;;1.67;;
5454;SDS011;2750;49.050;9.250;2022-09-03T01:41:11;2.13;;;1.60;;
5454;SDS011;2750;49.050;9.250;2022-09-03T01:46:39;2.73;;;1.53;;
5454;SDS011;2750;49.050;9.250;2022-09-03T01:51:44;2.00;;;1.90;;
5454;SDS011;2750;49.050;9.250;2022-09-03T01:56:50;2.47;;;2.00;;
5454;SDS011;2750;49.050;9.250;2022-09-03T02:02:08;3.30;;;1.70;;
5454;SDS011;2750;49.050;9.250;2022-09-03T02:07:20;2.23;;;1.50;;
5454;SDS011;2750;49.050;9.250;2022-09-03T02:12:24;2.33;;;1.60;;
5454;SDS011;2750;49.050;9.250;2022-09-03T02:17:27;1.93;;;1.73;;
5454;SDS011;2750;49.050;9.250;2022-09-03T02:22:28;1.77;;;1.50;;
5454;SDS011;2750;49.050;9.250;2022-09-03T02:27:30;9.57;;;6.07;;
5454;SDS011;2750;49.050;9.250;2022-09-03T02:32:33;38.47;;;24.40;;
5454;SDS011;2750;49.050;9.250;2022-09-03T02:37:35;14.70;;;9.83;;
5454;SDS011;2750;49.050;9.250;2022-09-03T02:42:36;3.10;;;2.10;;
5454;SDS011;2750;49.050;9.250;2022-09-03T02:47:40;2.70;;;2.00;;
5454;SDS011;2750;49.050;9.250;2022-09-03T02:52:44;1.80;;;1.70;;
5454;SDS011;2750;49.050;9.250;2022-09-03T02:57:46;2.73;;;2.00;;
5454;SDS011;2750;49.050;9.250;2022-09-03T03:02:49;1.93;;;1.80;;
5454;SDS011;2750;49.050;9.250;2022-09-03T03:07:51;2.93;;;2.40;;
5454;SDS011;2750;49.050;9.250;2022-09-03T03:12:53;2.70;;;2.20;;
5454;SDS011;2750;49.050;9.250;2022-09-03T03:17:56;2.50;;;2.30;;
5454;SDS011;2750;49.050;9.250;2022-09-03T03:23:00;3.63;;;1.97;;
5454;SDS011;2750;49.050;9.250;2022-09-03T03:28:02;3.50;;;1.80;;
5454;SDS011;2750;49.050;9.250;2022-09-03T03:33:05;2.77;;;1.80;;
5454;SDS011;2750;49.050;9.250;2022-09-03T03:38:07;3.37;;;1.70;;
5454;SDS011;2750;49.050;9.250;2022-09-03T03:43:08;1.90;;;1.80;;
5454;SDS011;2750;49.050;9.250;2022-09-03T03:48:11;3.13;;;2.13;;
5454;SDS011;2750;49.050;9.250;2022-09-03T03:53:13;2.63;;;1.90;;
5454;SDS011;2750;49.050;9.250;2022-09-03T03:58:14;4.27;;;1.87;;
5454;SDS011;2750;49.050;9.250;2022-09-03T04:03:17;3.10;;;2.23;;
5454;SDS011;2750;49.050;9.250;2022-09-03T04:08:19;2.33;;;2.13;;
5454;SDS011;2750;49.050;9.250;2022-09-03T04:13:20;3.73;;;2.00;;
5454;SDS011;2750;49.050;9.250;2022-09-03T04:18:23;2.90;;;2.00;;
5454;SDS011;2750;49.050;9.250;2022-09-03T04:23:25;4.17;;;1.97;;
5454;SDS011;2750;49.050;9.250;2022-09-03T04:28:28;2.60;;;2.20;;
5454;SDS011;2750;49.050;9.250;2022-09-03T04:33:31;2.97;;;2.20;;
5454;SDS011;2750;49.050;9.250;2022-09-03T04:38:35;2.93;;;2.00;;
5454;SDS011;2750;49.050;9.250;2022-09-03T04:43:37;2.20;;;2.00;;
5454;SDS011;2750;49.050;9.250;2022-09-03T04:48:42;2.33;;;2.00;;
5454;SDS011;2750;49.050;9.250;2022-09-03T04:53:45;2.23;;;2.00;;
5454;SDS011;2750;49.050;9.250;2022-09-03T04:58:48;3.27;;;2.07;;
5454;SDS011;2750;49.050;9.250;2022-09-03T05:03:55;3.33;;;2.47;;
5454;SDS011;2750;49.050;9.250;2022-09-03T05:08:58;4.70;;;2.50;;
5454;SDS011;2750;49.050;9.250;2022-09-03T05:14:00;3.13;;;2.70;;
5454;SDS011;2750;49.050;9.250;2022-09-03T05:19:03;1.83;;;1.73;;
5454;SDS011;2750;49.050;9.250;2022-09-03T05:24:07;2.80;;;2.10;;
5454;SDS011;2750;49.050;9.250;2022-09-03T05:29:10;3.67;;;2.63;;
5454;SDS011;2750;49.050;9.250;2022-09-03T05:34:13;3.17;;;2.67;;
5454;SDS011;2750;49.050;9.250;2022-09-03T05:39:14;2.77;;;2.57;;
5454;SDS011;2750;49.050;9.250;2022-09-03T05:44:16;6.47;;;2.00;;
5454;SDS011;2750;49.050;9.250;2022-09-03T05:49:19;3.33;;;2.37;;
5454;SDS011;2750;49.050;9.250;2022-09-03T05:54:20;3.80;;;2.20;;
5454;SDS011;2750;49.050;9.250;2022-09-03T05:59:22;2.20;;;1.83;;
5454;SDS011;2750;49.050;9.250;2022-09-03T06:04:25;3.73;;;1.60;;
5454;SDS011;2750;49.050;9.250;2022-09-03T06:09:26;2.63;;;2.30;;
5454;SDS011;2750;49.050;9.250;2022-09-03T06:14:28;3.27;;;2.37;;
5454;SDS011;2750;49.050;9.250;2022-09-03T06:19:31;3.67;;;2.17;;
5454;SDS011;2750;49.050;9.250;2022-09-03T06:24:33;2.53;;;2.33;;
5454;SDS011;2750;49.050;9.250;2022-09-03T06:29:35;3.97;;;2.55;;
5454;SDS011;2750;49.050;9.250;2022-09-03T06:34:39;5.25;;;4.03;;
5454;SDS011;2750;49.050;9.250;2022-09-03T06:39:40;4.13;;;3.45;;
5454;SDS011;2750;49.050;9.250;2022-09-03T06:44:42;4.20;;;3.25;;
5454;SDS011;2750;49.050;9.250;2022-09-03T06:49:46;3.75;;;3.20;;
5454;SDS011;2750;49.050;9.250;2022-09-03T06:54:47;3.75;;;3.35;;
5454;SDS011;2750;49.050;9.250;2022-09-03T06:59:48;3.03;;;2.42;;
5454;SDS011;2750;49.050;9.250;2022-09-03T07:04:51;3.40;;;3.00;;
5454;SDS011;2750;49.050;9.250;2022-09-03T07:09:53;2.53;;;2.33;;
5454;SDS011;2750;49.050;9.250;2022-09-03T07:14:54;2.90;;;2.70;;
5454;SDS011;2750;49.050;9.250;2022-09-03T07:19:57;2.60;;;2.40;;
5454;SDS011;2750;49.050;9.250;2022-09-03T07:24:58;4.13;;;2.30;;
5454;SDS011;2750;49.050;9.250;2022-09-03T07:30:00;2.63;;;2.43;;
5454;SDS011;2750;49.050;9.250;2022-09-03T07:35:04;3.57;;;2.60;;
5454;SDS011;2750;49.050;9.250;2022-09-03T07:40:06;5.63;;;2.83;;
5454;SDS011;2750;49.050;9.250;2022-09-03T07:45:08;3.70;;;3.10;;
5454;SDS011;2750;49.050;9.250;2022-09-03T07:50:12;3.20;;;2.53;;
5454;SDS011;2750;49.050;9.250;2022-09-03T07:55:15;3.83;;;2.60;;
5454;SDS011;2750;49.050;9.250;2022-09-03T08:00:16;5.75;;;2.72;;
5454;SDS011;2750;49.050;9.250;2022-09-03T08:05:19;3.05;;;2.67;;
5454;SDS011;2750;49.050;9.250;2022-09-03T08:10:21;3.20;;;2.90;;
5454;SDS011;2750;49.050;9.250;2022-09-03T08:15:23;3.03;;;2.72;;
5454;SDS011;2750;49.050;9.250;2022-09-03T08:20:27;2.92;;;2.63;;
5454;SDS011;2750;49.050;9.250;2022-09-03T08:25:29;5.47;;;3.10;;
5454;SDS011;2750;49.050;9.250;2022-09-03T08:30:32;5.45;;;2.75;;
5454;SDS011;2750;49.050;9.250;2022-09-03T08:35:35;3.50;;;2.80;;
5454;SDS011;2750;49.050;9.250;2022-09-03T08:40:37;3.42;;;2.58;;
5454;SDS011;2750;49.050;9.250;2022-09-03T08:45:38;3.55;;;2.80;;
5454;SDS011;2750;49.050;9.250;2022-09-03T08:50:42;4.88;;;2.90;;
5454;SDS011;2750;49.050;9.250;2022-09-03T08:55:49;3.45;;;2.97;;
5454;SDS011;2750;49.050;9.250;2022-09-03T09:00:54;3.67;;;3.17;;
5454;SDS011;2750;49.050;9.250;2022-09-03T09:06:06;6.20;;;3.85;;
5454;SDS011;2750;49.050;9.250;2022-09-03T09:11:17;5.05;;;2.83;;
5454;SDS011;2750;49.050;9.250;2022-09-03T09:16:29;4.03;;;2.78;;
5454;SDS011;2750;49.050;9.250;2022-09-03T09:21:41;5.37;;;3.20;;
5454;SDS011;2750;49.050;9.250;2022-09-03T09:26:50;3.70;;;2.80;;
5454;SDS011;2750;49.050;9.250;2022-09-03T09:31:58;9.25;;;3.40;;
5454;SDS011;2750;49.050;9.250;2022-09-03T09:37:01;3.30;;;3.10;;
5454;SDS011;2750;49.050;9.250;2022-09-03T09:42:06;3.88;;;3.10;;
5454;SDS011;2750;49.050;9.250;2022-09-03T09:47:11;4.40;;;3.60;;
5454;SDS011;2750;49.050;9.250;2022-09-03T09:52:16;6.10;;;3.30;;
5454;SDS011;2750;49.050;9.250;2022-09-03T09:57:20;4.50;;;3.30;;
5454;SDS011;2750;49.050;9.250;2022-09-03T10:02:24;4.32;;;3.25;;
5454;SDS011;2750;49.050;9.250;2022-09-03T10:07:29;3.83;;;3.40;;
5454;SDS011;2750;49.050;9.250;2022-09-03T10:12:32;3.38;;;3.00;;
5454;SDS011;2750;49.050;9.250;2022-09-03T10:17:46;4.13;;;3.60;;
5454;SDS011;2750;49.050;9.250;2022-09-03T10:22:55;5.95;;;3.63;;
5454;SDS011;2750;49.050;9.250;2022-09-03T10:28:00;3.60;;;3.30;;
5454;SDS011;2750;49.050;9.250;2022-09-03T10:33:04;4.45;;;4.05;;
5454;SDS011;2750;49.050;9.250;2022-09-03T10:38:16;3.97;;;3.53;;
5454;SDS011;2750;49.050;9.250;2022-09-03T10:43:25;5.25;;;3.80;;
5454;SDS011;2750;49.050;9.250;2022-09-03T10:48:47;5.32;;;3.60;;
5454;SDS011;2750;49.050;9.250;2022-09-03T10:54:09;4.20;;;3.28;;
5454;SDS011;2750;49.050;9.250;2022-09-03T10:59:31;3.92;;;3.50;;
5454;SDS011;2750;49.050;9.250;2022-09-03T11:04:40;5.82;;;3.72;;
5454;SDS011;2750;49.050;9.250;2022-09-03T11:09:50;6.45;;;4.30;;
5454;SDS011;2750;49.050;9.250;2022-09-03T11:14:58;3.45;;;3.20;;
5454;SDS011;2750;49.050;9.250;2022-09-03T11:20:08;3.47;;;3.25;;
5454;SDS011;2750;49.050;9.250;2022-09-03T11:25:17;3.60;;;3.30;;
5454;SDS011;2750;49.050;9.250;2022-09-03T11:30:26;3.45;;;3.15;;
5454;SDS011;2750;49.050;9.250;2022-09-03T11:35:39;3.50;;;3.20;;
5454;SDS011;2750;49.050;9.250;2022-09-03T11:40:54;3.50;;;3.20;;
5454;SDS011;2750;49.050;9.250;2022-09-03T11:46:00;4.05;;;3.13;;
5454;SDS011;2750;49.050;9.250;2022-09-03T11:51:17;3.38;;;3.08;;
5454;SDS011;2750;49.050;9.250;2022-09-03T11:56:22;3.03;;;2.72;;
5454;SDS011;2750;49.050;9.250;2022-09-03T12:01:24;3.83;;;3.30;;
5454;SDS011;2750;49.050;9.250;2022-09-03T12:06:33;3.15;;;2.83;;
5454;SDS011;2750;49.050;9.250;2022-09-03T12:11:47;3.05;;;2.85;;
5454;SDS011;2750;49.050;9.250;2022-09-03T12:17:07;2.88;;;2.60;;
5454;SDS011;2750;49.050;9.250;2022-09-03T12:22:18;3.30;;;2.95;;
5454;SDS011;2750;49.050;9.250;2022-09-03T12:27:23;2.70;;;2.50;;
5454;SDS011;2750;49.050;9.250;2022-09-03T12:32:27;2.70;;;2.50;;
5454;SDS011;2750;49.050;9.250;2022-09-03T12:37:32;3.33;;;2.53;;
5454;SDS011;2750;49.050;9.250;2022-09-03T12:42:36;2.83;;;2.63;;
5454;SDS011;2750;49.050;9.250;2022-09-03T12:47:38;2.95;;;2.75;;
5454;SDS011;2750;49.050;9.250;2022-09-03T12:52:40;2.88;;;2.63;;
5454;SDS011;2750;49.050;9.250;2022-09-03T12:57:47;3.40;;;2.90;;
5454;SDS011;2750;49.050;9.250;2022-09-03T13:02:52;3.17;;;2.88;;
5454;SDS011;2750;49.050;9.250;2022-09-03T13:08:01;3.50;;;3.20;;
5454;SDS011;2750;49.050;9.250;2022-09-03T13:13:14;4.47;;;3.50;;
5454;SDS011;2750;49.050;9.250;2022-09-03T13:18:22;6.72;;;5.50;;
5454;SDS011;2750;49.050;9.250;2022-09-03T13:23:36;8.65;;;4.70;;
5454;SDS011;2750;49.050;9.250;2022-09-03T13:28:50;5.60;;;3.78;;
5454;SDS011;2750;49.050;9.250;2022-09-03T13:34:06;4.82;;;3.40;;
5454;SDS011;2750;49.050;9.250;2022-09-03T13:39:17;4.47;;;3.58;;
5454;SDS011;2750;49.050;9.250;2022-09-03T13:44:31;4.20;;;3.60;;
5454;SDS011;2750;49.050;9.250;2022-09-03T13:49:41;4.10;;;3.45;;
5454;SDS011;2750;49.050;9.250;2022-09-03T13:55:07;4.35;;;3.85;;
5454;SDS011;2750;49.050;9.250;2022-09-03T14:00:21;3.95;;;3.60;;
5454;SDS011;2750;49.050;9.250;2022-09-03T14:05:30;6.53;;;3.95;;
5454;SDS011;2750;49.050;9.250;2022-09-03T14:16:03;4.18;;;3.55;;
5454;SDS011;2750;49.050;9.250;2022-09-03T14:21:08;4.13;;;3.72;;
5454;SDS011;2750;49.050;9.250;2022-09-03T14:26:16;4.82;;;4.30;;
5454;SDS011;2750;49.050;9.250;2022-09-03T14:31:24;4.00;;;3.70;;
5454;SDS011;2750;49.050;9.250;2022-09-03T14:36:42;3.80;;;3.28;;
5454;SDS011;2750;49.050;9.250;2022-09-03T14:41:57;5.50;;;3.10;;
5454;SDS011;2750;49.050;9.250;2022-09-03T14:47:12;6.47;;;3.45;;
5454;SDS011;2750;49.050;9.250;2022-09-03T14:52:36;4.33;;;3.93;;
5454;SDS011;2750;49.050;9.250;2022-09-03T14:57:52;5.90;;;4.00;;
5454;SDS011;2750;49.050;9.250;2022-09-03T15:03:15;5.40;;;4.90;;
5454;SDS011;2750;49.050;9.250;2022-09-03T15:08:28;4.67;;;4.27;;
5454;SDS011;2750;49.050;9.250;2022-09-03T15:13:46;7.60;;;4.93;;
5454;SDS011;2750;49.050;9.250;2022-09-03T15:18:58;5.83;;;4.33;;
5454;SDS011;2750;49.050;9.250;2022-09-03T15:24:11;5.47;;;4.97;;
5454;SDS011;2750;49.050;9.250;2022-09-03T15:35:07;5.30;;;4.80;;
5454;SDS011;2750;49.050;9.250;2022-09-03T15:40:15;5.43;;;4.37;;
5454;SDS011;2750;49.050;9.250;2022-09-03T15:45:30;4.93;;;3.93;;
5454;SDS011;2750;49.050;9.250;2022-09-03T15:50:38;5.47;;;4.97;;
5454;SDS011;2750;49.050;9.250;2022-09-03T15:56:00;6.47;;;4.27;;
5454;SDS011;2750;49.050;9.250;2022-09-03T16:01:10;5.03;;;4.27;;
5454;SDS011;2750;49.050;9.250;2022-09-03T16:06:27;6.87;;;4.20;;
5454;SDS011;2750;49.050;9.250;2022-09-03T16:11:39;5.37;;;4.47;;
5454;SDS011;2750;49.050;9.250;2022-09-03T16:16:54;5.57;;;4.23;;
5454;SDS011;2750;49.050;9.250;2022-09-03T16:22:06;6.03;;;4.20;;
5454;SDS011;2750;49.050;9.250;2022-09-03T16:27:14;4.40;;;4.00;;
5454;SDS011;2750;49.050;9.250;2022-09-03T16:32:22;5.03;;;4.33;;
5454;SDS011;2750;49.050;9.250;2022-09-03T16:37:37;6.47;;;4.53;;
5454;SDS011;2750;49.050;9.250;2022-09-03T16:42:52;5.77;;;4.47;;
5454;SDS011;2750;49.050;9.250;2022-09-03T16:48:08;5.67;;;4.10;;
5454;SDS011;2750;49.050;9.250;2022-09-03T16:53:23;5.17;;;4.37;;
5454;SDS011;2750;49.050;9.250;2022-09-03T16:58:35;5.10;;;4.07;;
5454;SDS011;2750;49.050;9.250;2022-09-03T17:03:50;5.87;;;3.87;;
5454;SDS011;2750;49.050;9.250;2022-09-03T17:09:08;3.60;;;3.30;;
5454;SDS011;2750;49.050;9.250;2022-09-03T17:14:31;4.50;;;3.60;;
5454;SDS011;2750;49.050;9.250;2022-09-03T17:19:56;4.90;;;3.53;;
5454;SDS011;2750;49.050;9.250;2022-09-03T17:25:11;4.13;;;3.65;;
5454;SDS011;2750;49.050;9.250;2022-09-03T17:30:24;3.97;;;3.58;;
5454;SDS011;2750;49.050;9.250;2022-09-03T17:35:40;3.45;;;3.15;;
5454;SDS011;2750;49.050;9.250;2022-09-03T17:40:58;3.20;;;2.83;;
5454;SDS011;2750;49.050;9.250;2022-09-03T17:46:18;4.10;;;3.40;;
5454;SDS011;2750;49.050;9.250;2022-09-03T17:51:35;4.17;;;3.20;;
5454;SDS011;2750;49.050;9.250;2022-09-03T17:56:48;4.43;;;3.60;;
5454;SDS011;2750;49.050;9.250;2022-09-03T18:01:58;4.40;;;3.57;;
5454;SDS011;2750;49.050;9.250;2022-09-03T18:07:05;4.10;;;3.67;;
5454;SDS011;2750;49.050;9.250;2022-09-03T18:12:13;4.77;;;4.30;;
5454;SDS011;2750;49.050;9.250;2022-09-03T18:17:26;5.10;;;4.60;;
5454;SDS011;2750;49.050;9.250;2022-09-03T18:22:37;3.90;;;3.53;;
5454;SDS011;2750;49.050;9.250;2022-09-03T18:28:08;3.73;;;3.37;;
5454;SDS011;2750;49.050;9.250;2022-09-03T18:33:30;6.13;;;5.03;;
5454;SDS011;2750;49.050;9.250;2022-09-03T18:38:49;5.10;;;4.27;;
5454;SDS011;2750;49.050;9.250;2022-09-03T18:44:11;4.67;;;4.17;;
5454;SDS011;2750;49.050;9.250;2022-09-03T18:49:47;5.10;;;4.60;;
5454;SDS011;2750;49.050;9.250;2022-09-03T18:55:14;8.33;;;5.20;;
5454;SDS011;2750;49.050;9.250;2022-09-03T19:00:40;5.63;;;5.03;;
5454;SDS011;2750;49.050;9.250;2022-09-03T19:06:12;6.77;;;5.40;;
5454;SDS011;2750;49.050;9.250;2022-09-03T19:11:43;10.17;;;7.37;;
5454;SDS011;2750;49.050;9.250;2022-09-03T19:17:13;5.73;;;5.13;;
5454;SDS011;2750;49.050;9.250;2022-09-03T19:22:40;6.43;;;5.27;;
5454;SDS011;2750;49.050;9.250;2022-09-03T19:28:03;6.97;;;5.40;;
5454;SDS011;2750;49.050;9.250;2022-09-03T19:33:38;6.03;;;5.20;;
5454;SDS011;2750;49.050;9.250;2022-09-03T19:39:09;7.27;;;5.37;;
5454;SDS011;2750;49.050;9.250;2022-09-03T19:44:41;9.23;;;7.10;;
5454;SDS011;2750;49.050;9.250;2022-09-03T19:50:16;6.50;;;5.83;;
5454;SDS011;2750;49.050;9.250;2022-09-03T19:55:40;10.83;;;7.30;;
5454;SDS011;2750;49.050;9.250;2022-09-03T20:01:02;5.80;;;5.17;;
5454;SDS011;2750;49.050;9.250;2022-09-03T20:06:23;8.77;;;5.73;;
5454;SDS011;2750;49.050;9.250;2022-09-03T20:11:41;6.97;;;6.33;;
5454;SDS011;2750;49.050;9.250;2022-09-03T20:16:47;11.07;;;5.97;;
5454;SDS011;2750;49.050;9.250;2022-09-03T20:22:00;6.10;;;5.07;;
5454;SDS011;2750;49.050;9.250;2022-09-03T20:27:16;5.97;;;5.37;;
5454;SDS011;2750;49.050;9.250;2022-09-03T20:32:36;6.00;;;5.40;;
5454;SDS011;2750;49.050;9.250;2022-09-03T20:38:18;7.00;;;5.87;;
5454;SDS011;2750;49.050;9.250;2022-09-03T20:43:34;9.03;;;6.37;;
5454;SDS011;2750;49.050;9.250;2022-09-03T20:48:50;7.23;;;6.53;;
5454;SDS011;2750;49.050;9.250;2022-09-03T20:54:08;6.23;;;5.63;;
5454;SDS011;2750;49.050;9.250;2022-09-03T20:59:14;6.50;;;5.80;;
5454;SDS011;2750;49.050;9.250;2022-09-03T21:04:34;6.33;;;5.83;;
5454;SDS011;2750;49.050;9.250;2022-09-03T21:09:51;5.97;;;5.47;;
5454;SDS011;2750;49.050;9.250;2022-09-03T21:15:03;7.10;;;6.40;;
5454;SDS011;2750;49.050;9.250;2022-09-03T21:20:16;5.90;;;5.30;;
5454;SDS011;2750;49.050;9.250;2022-09-03T21:25:26;5.97;;;5.20;;
5454;SDS011;2750;49.050;9.250;2022-09-03T21:30:33;6.23;;;5.67;;
5454;SDS011;2750;49.050;9.250;2022-09-03T21:35:40;6.00;;;5.50;;
5454;SDS011;2750;49.050;9.250;2022-09-03T21:40:48;6.40;;;5.47;;
5454;SDS011;2750;49.050;9.250;2022-09-03T21:45:56;7.10;;;6.33;;
5454;SDS011;2750;49.050;9.250;2022-09-03T21:51:03;7.87;;;7.07;;
5454;SDS011;2750;49.050;9.250;2022-09-03T22:01:52;5.60;;;5.10;;
5454;SDS011;2750;49.050;9.250;2022-09-03T22:07:05;6.50;;;5.87;;
5454;SDS011;2750;49.050;9.250;2022-09-03T22:12:17;7.40;;;6.70;;
5454;SDS011;2750;49.050;9.250;2022-09-03T22:17:25;6.50;;;5.10;;
5454;SDS011;2750;49.050;9.250;2022-09-03T22:22:34;6.40;;;5.80;;
5454;SDS011;2750;49.050;9.250;2022-09-03T22:27:45;5.57;;;5.03;;
5454;SDS011;2750;49.050;9.250;2022-09-03T22:32:55;6.77;;;6.07;;
5454;SDS011;2750;49.050;9.250;2022-09-03T22:38:10;5.63;;;5.03;;
5454;SDS011;2750;49.050;9.250;2022-09-03T22:43:36;7.17;;;5.77;;
5454;SDS011;2750;49.050;9.250;2022-09-03T22:48:44;8.93;;;6.67;;
5454;SDS011;2750;49.050;9.250;2022-09-03T22:54:08;10.03;;;7.60;;
5454;SDS011;2750;49.050;9.250;2022-09-03T22:59:22;9.50;;;6.63;;
5454;SDS011;2750;49.050;9.250;2022-09-03T23:04:29;7.67;;;6.97;;
5454;SDS011;2750;49.050;9.250;2022-09-03T23:09:35;9.87;;;8.03;;
5454;SDS011;2750;49.050;9.250;2022-09-03T23:14:42;10.13;;;8.80;;
5454;SDS011;2750;49.050;9.250;2022-09-03T23:19:52;8.57;;;7.67;;
5454;SDS011;2750;49.050;9.250;2022-09-03T23:24:57;8.70;;;7.13;;
5454;SDS011;2750;49.050;9.250;2022-09-03T23:30:05;8.27;;;7.07;;
5454;SDS011;2750;49.050;9.250;2022-09-03T23:35:09;8.27;;;6.37;;
5454;SDS011;2750;49.050;9.250;2022-09-03T23:40:19;7.07;;;6.47;;
5454;SDS011;2750;49.050;9.250;2022-09-03T23:45:37;7.47;;;6.77;;
5454;SDS011;2750;49.050;9.250;2022-09-03T23:50:46;7.80;;;7.00;;
5454;SDS011;2750;49.050;9.250;2022-09-03T23:55:57;10.70;;;7.97;;
